Terminal Aerodrome Forecast
Issued by NWS

Home | Current Version | Previous Version | Text Only | Print | Product List | Glossary On
Versions: 1 2 3 4 5 6 7 8 9 10 11 12 13 14 15 16 17 18 19 20 21 22 23
000
FTUS44 KLIX 242327
TAFGPT
TAF
KGPT 242327Z 2500/2524 17010KT P6SM SCT025 BKN100
     FM250600 18009KT P6SM VCSH SCT010 BKN060
     FM250800 18008KT P6SM VCSH SCT010 BKN020
     FM251000 19007KT P6SM BKN015 BKN025 PROB30 2510/2512 4SM SHRA
      BKN015
     FM251200 19007KT 3SM SHRA BKN015
     FM251500 19007KT 3SM SHRA SCT015 BKN025=

USA.gov is the U.S. government's official web portal to all federal, state and local government web resources and services.